sensor_id;sensor_type;location;lat;lon;timestamp;temperature;humidity
20568;DHT22;10442;49.932;11.592;2022-10-23T00:01:13;12.70;79.50
20568;DHT22;10442;49.932;11.592;2022-10-23T00:03:40;12.70;79.50
20568;DHT22;10442;49.932;11.592;2022-10-23T00:06:08;12.70;79.50
20568;DHT22;10442;49.932;11.592;2022-10-23T00:08:36;12.70;79.80
20568;DHT22;10442;49.932;11.592;2022-10-23T00:11:12;12.70;80.00
20568;DHT22;10442;49.932;11.592;2022-10-23T00:13:40;12.70;80.20
20568;DHT22;10442;49.932;11.592;2022-10-23T00:16:08;12.70;80.20
20568;DHT22;10442;49.932;11.592;2022-10-23T00:18:37;12.70;80.30
20568;DHT22;10442;49.932;11.592;2022-10-23T00:21:06;12.70;80.20
20568;DHT22;10442;49.932;11.592;2022-10-23T00:23:34;12.70;80.20
20568;DHT22;10442;49.932;11.592;2022-10-23T00:26:02;12.70;80.10
20568;DHT22;10442;49.932;11.592;2022-10-23T00:28:30;12.70;80.50
20568;DHT22;10442;49.932;11.592;2022-10-23T00:31:01;12.70;80.10
20568;DHT22;10442;49.932;11.592;2022-10-23T00:33:30;12.70;80.10
20568;DHT22;10442;49.932;11.592;2022-10-23T00:35:58;12.70;80.00
20568;DHT22;10442;49.932;11.592;2022-10-23T00:38:26;12.60;79.80
20568;DHT22;10442;49.932;11.592;2022-10-23T00:40:53;12.60;79.70
20568;DHT22;10442;49.932;11.592;2022-10-23T00:43:24;12.60;79.60
20568;DHT22;10442;49.932;11.592;2022-10-23T00:45:51;12.60;79.70
20568;DHT22;10442;49.932;11.592;2022-10-23T00:48:19;12.60;79.90
20568;DHT22;10442;49.932;11.592;2022-10-23T00:50:48;12.50;79.80
20568;DHT22;10442;49.932;11.592;2022-10-23T00:53:17;12.50;80.00
20568;DHT22;10442;49.932;11.592;2022-10-23T00:55:48;12.50;80.10
20568;DHT22;10442;49.932;11.592;2022-10-23T00:58:18;12.50;80.10
20568;DHT22;10442;49.932;11.592;2022-10-23T01:00:49;12.50;80.40
20568;DHT22;10442;49.932;11.592;2022-10-23T01:03:21;12.50;81.30
20568;DHT22;10442;49.932;11.592;2022-10-23T01:05:54;12.50;80.50
20568;DHT22;10442;49.932;11.592;2022-10-23T01:08:36;12.50;80.40
20568;DHT22;10442;49.932;11.592;2022-10-23T01:14:02;12.50;80.70
20568;DHT22;10442;49.932;11.592;2022-10-23T01:21:57;12.50;80.80
20568;DHT22;10442;49.932;11.592;2022-10-23T01:24:57;12.50;80.60
20568;DHT22;10442;49.932;11.592;2022-10-23T01:27:37;12.50;80.80
20568;DHT22;10442;49.932;11.592;2022-10-23T01:30:09;12.50;81.00
20568;DHT22;10442;49.932;11.592;2022-10-23T01:32:48;12.50;82.20
20568;DHT22;10442;49.932;11.592;2022-10-23T01:35:23;12.60;83.60
20568;DHT22;10442;49.932;11.592;2022-10-23T01:38:08;12.60;83.90
20568;DHT22;10442;49.932;11.592;2022-10-23T01:40:56;12.70;84.00
20568;DHT22;10442;49.932;11.592;2022-10-23T01:43:31;12.70;83.80
20568;DHT22;10442;49.932;11.592;2022-10-23T01:46:04;12.80;83.30
20568;DHT22;10442;49.932;11.592;2022-10-23T01:48:36;12.80;83.10
20568;DHT22;10442;49.932;11.592;2022-10-23T01:51:07;12.80;82.50
20568;DHT22;10442;49.932;11.592;2022-10-23T01:53:40;12.80;82.10
20568;DHT22;10442;49.932;11.592;2022-10-23T01:56:14;12.80;81.60
20568;DHT22;10442;49.932;11.592;2022-10-23T01:58:50;12.80;82.30
20568;DHT22;10442;49.932;11.592;2022-10-23T02:01:23;12.80;81.80
20568;DHT22;10442;49.932;11.592;2022-10-23T02:03:53;12.80;81.80
20568;DHT22;10442;49.932;11.592;2022-10-23T02:06:21;12.80;82.00
20568;DHT22;10442;49.932;11.592;2022-10-23T02:08:49;12.80;82.10
20568;DHT22;10442;49.932;11.592;2022-10-23T02:11:19;12.80;82.10
20568;DHT22;10442;49.932;11.592;2022-10-23T02:19:20;12.80;81.70
20568;DHT22;10442;49.932;11.592;2022-10-23T02:21:55;12.80;82.20
20568;DHT22;10442;49.932;11.592;2022-10-23T02:24:42;12.80;83.30
20568;DHT22;10442;49.932;11.592;2022-10-23T02:27:16;12.90;83.80
20568;DHT22;10442;49.932;11.592;2022-10-23T02:29:51;12.90;83.90
20568;DHT22;10442;49.932;11.592;2022-10-23T02:32:23;13.00;84.20
20568;DHT22;10442;49.932;11.592;2022-10-23T02:34:50;13.10;84.40
20568;DHT22;10442;49.932;11.592;2022-10-23T02:37:18;13.10;84.30
20568;DHT22;10442;49.932;11.592;2022-10-23T02:39:52;13.20;84.30
20568;DHT22;10442;49.932;11.592;2022-10-23T02:42:30;13.30;84.20
20568;DHT22;10442;49.932;11.592;2022-10-23T02:45:13;13.40;84.20
20568;DHT22;10442;49.932;11.592;2022-10-23T02:48:03;13.40;84.10
20568;DHT22;10442;49.932;11.592;2022-10-23T02:50:43;13.50;84.40
20568;DHT22;10442;49.932;11.592;2022-10-23T02:53:51;13.60;84.10
20568;DHT22;10442;49.932;11.592;2022-10-23T02:56:39;13.70;84.00
20568;DHT22;10442;49.932;11.592;2022-10-23T02:59:20;13.70;83.60
20568;DHT22;10442;49.932;11.592;2022-10-23T03:01:55;13.80;83.60
20568;DHT22;10442;49.932;11.592;2022-10-23T03:04:27;13.80;83.30
20568;DHT22;10442;49.932;11.592;2022-10-23T03:06:55;13.90;83.10
20568;DHT22;10442;49.932;11.592;2022-10-23T03:09:25;13.90;82.90
20568;DHT22;10442;49.932;11.592;2022-10-23T03:11:52;13.90;82.70
20568;DHT22;10442;49.932;11.592;2022-10-23T03:14:20;13.90;82.50
20568;DHT22;10442;49.932;11.592;2022-10-23T03:16:47;13.90;82.50
20568;DHT22;10442;49.932;11.592;2022-10-23T03:19:14;14.00;82.70
20568;DHT22;10442;49.932;11.592;2022-10-23T03:21:42;13.90;83.00
20568;DHT22;10442;49.932;11.592;2022-10-23T03:24:09;14.00;83.30
20568;DHT22;10442;49.932;11.592;2022-10-23T03:26:41;14.00;83.60
20568;DHT22;10442;49.932;11.592;2022-10-23T03:29:09;14.00;83.70
20568;DHT22;10442;49.932;11.592;2022-10-23T03:31:42;14.10;83.80
20568;DHT22;10442;49.932;11.592;2022-10-23T03:34:09;14.10;83.90
20568;DHT22;10442;49.932;11.592;2022-10-23T03:36:40;14.10;83.80
20568;DHT22;10442;49.932;11.592;2022-10-23T03:39:08;14.10;83.80
20568;DHT22;10442;49.932;11.592;2022-10-23T03:41:36;14.10;83.80
20568;DHT22;10442;49.932;11.592;2022-10-23T03:44:04;14.10;83.80
20568;DHT22;10442;49.932;11.592;2022-10-23T03:46:36;14.20;84.00
20568;DHT22;10442;49.932;11.592;2022-10-23T03:49:04;14.20;83.90
20568;DHT22;10442;49.932;11.592;2022-10-23T03:51:31;14.20;84.10
20568;DHT22;10442;49.932;11.592;2022-10-23T03:53:59;14.20;84.20
20568;DHT22;10442;49.932;11.592;2022-10-23T03:56:26;14.20;84.30
20568;DHT22;10442;49.932;11.592;2022-10-23T03:58:54;14.20;84.30
20568;DHT22;10442;49.932;11.592;2022-10-23T04:01:24;14.30;84.40
20568;DHT22;10442;49.932;11.592;2022-10-23T04:03:52;14.30;84.20
20568;DHT22;10442;49.932;11.592;2022-10-23T04:06:19;14.30;84.40
20568;DHT22;10442;49.932;11.592;2022-10-23T04:08:48;14.30;84.30
20568;DHT22;10442;49.932;11.592;2022-10-23T04:11:16;14.30;84.30
20568;DHT22;10442;49.932;11.592;2022-10-23T04:13:45;14.30;84.30
20568;DHT22;10442;49.932;11.592;2022-10-23T04:16:13;14.40;84.40
20568;DHT22;10442;49.932;11.592;2022-10-23T04:18:41;14.40;84.30
20568;DHT22;10442;49.932;11.592;2022-10-23T04:21:10;14.40;84.30
20568;DHT22;10442;49.932;11.592;2022-10-23T04:23:38;14.40;84.20
20568;DHT22;10442;49.932;11.592;2022-10-23T04:26:11;14.40;84.20
20568;DHT22;10442;49.932;11.592;2022-10-23T04:28:39;14.40;84.10
20568;DHT22;10442;49.932;11.592;2022-10-23T04:31:06;14.40;84.10
20568;DHT22;10442;49.932;11.592;2022-10-23T04:33:34;14.40;84.10
20568;DHT22;10442;49.932;11.592;2022-10-23T04:36:01;14.40;84.10
20568;DHT22;10442;49.932;11.592;2022-10-23T04:38:28;14.40;84.10
20568;DHT22;10442;49.932;11.592;2022-10-23T04:40:55;14.40;84.10
20568;DHT22;10442;49.932;11.592;2022-10-23T04:43:23;14.40;84.20
20568;DHT22;10442;49.932;11.592;2022-10-23T04:45:51;14.40;84.20
20568;DHT22;10442;49.932;11.592;2022-10-23T04:48:19;14.40;84.30
20568;DHT22;10442;49.932;11.592;2022-10-23T04:51:10;14.40;84.30
20568;DHT22;10442;49.932;11.592;2022-10-23T04:54:10;14.40;84.30
20568;DHT22;10442;49.932;11.592;2022-10-23T04:56:37;14.40;84.40
20568;DHT22;10442;49.932;11.592;2022-10-23T04:59:08;14.30;84.40
20568;DHT22;10442;49.932;11.592;2022-10-23T05:01:37;14.30;84.60
20568;DHT22;10442;49.932;11.592;2022-10-23T05:04:06;14.30;84.70
20568;DHT22;10442;49.932;11.592;2022-10-23T05:06:44;14.30;84.80
20568;DHT22;10442;49.932;11.592;2022-10-23T05:09:35;14.30;85.00
20568;DHT22;10442;49.932;11.592;2022-10-23T05:12:14;14.30;85.00
20568;DHT22;10442;49.932;11.592;2022-10-23T05:14:41;14.30;85.00
20568;DHT22;10442;49.932;11.592;2022-10-23T05:17:15;14.30;85.10
20568;DHT22;10442;49.932;11.592;2022-10-23T05:19:50;14.30;85.20
20568;DHT22;10442;49.932;11.592;2022-10-23T05:22:24;14.40;85.20
20568;DHT22;10442;49.932;11.592;2022-10-23T05:24:54;14.40;85.20
20568;DHT22;10442;49.932;11.592;2022-10-23T05:27:24;14.40;85.20
20568;DHT22;10442;49.932;11.592;2022-10-23T05:29:54;14.40;85.10
20568;DHT22;10442;49.932;11.592;2022-10-23T05:32:26;14.40;85.10
20568;DHT22;10442;49.932;11.592;2022-10-23T05:34:56;14.50;85.20
20568;DHT22;10442;49.932;11.592;2022-10-23T05:37:27;14.50;85.10
20568;DHT22;10442;49.932;11.592;2022-10-23T05:40:05;14.50;85.10
20568;DHT22;10442;49.932;11.592;2022-10-23T05:42:34;14.60;85.10
20568;DHT22;10442;49.932;11.592;2022-10-23T05:45:08;14.60;85.10
20568;DHT22;10442;49.932;11.592;2022-10-23T05:47:45;14.60;85.00
20568;DHT22;10442;49.932;11.592;2022-10-23T05:50:35;14.60;85.00
20568;DHT22;10442;49.932;11.592;2022-10-23T05:53:17;14.70;85.00
20568;DHT22;10442;49.932;11.592;2022-10-23T05:56:10;14.70;84.90
20568;DHT22;10442;49.932;11.592;2022-10-23T05:58:43;14.70;84.80
20568;DHT22;10442;49.932;11.592;2022-10-23T06:01:28;14.70;84.90
20568;DHT22;10442;49.932;11.592;2022-10-23T06:04:04;14.70;84.80
20568;DHT22;10442;49.932;11.592;2022-10-23T06:06:52;14.80;84.80
20568;DHT22;10442;49.932;11.592;2022-10-23T06:09:19;14.80;84.70
20568;DHT22;10442;49.932;11.592;2022-10-23T06:11:48;14.90;84.80
20568;DHT22;10442;49.932;11.592;2022-10-23T06:14:20;14.80;84.70
20568;DHT22;10442;49.932;11.592;2022-10-23T06:16:49;14.90;84.70
20568;DHT22;10442;49.932;11.592;2022-10-23T06:19:18;14.90;84.70
20568;DHT22;10442;49.932;11.592;2022-10-23T06:21:48;14.90;84.60
20568;DHT22;10442;49.932;11.592;2022-10-23T06:24:16;15.00;84.60
20568;DHT22;10442;49.932;11.592;2022-10-23T06:26:48;15.00;84.60
20568;DHT22;10442;49.932;11.592;2022-10-23T06:29:20;15.00;84.50
20568;DHT22;10442;49.932;11.592;2022-10-23T06:31:49;15.10;84.40
20568;DHT22;10442;49.932;11.592;2022-10-23T06:34:17;15.10;84.30
20568;DHT22;10442;49.932;11.592;2022-10-23T06:36:45;15.10;84.20
20568;DHT22;10442;49.932;11.592;2022-10-23T06:39:33;15.10;84.20
20568;DHT22;10442;49.932;11.592;2022-10-23T06:42:09;15.10;84.20
20568;DHT22;10442;49.932;11.592;2022-10-23T06:44:56;15.10;84.20
20568;DHT22;10442;49.932;11.592;2022-10-23T06:47:48;15.20;84.10
20568;DHT22;10442;49.932;11.592;2022-10-23T06:50:41;15.20;84.10
20568;DHT22;10442;49.932;11.592;2022-10-23T06:53:12;15.20;83.90
20568;DHT22;10442;49.932;11.592;2022-10-23T06:55:46;15.30;83.90
20568;DHT22;10442;49.932;11.592;2022-10-23T06:58:19;15.30;83.70
20568;DHT22;10442;49.932;11.592;2022-10-23T07:01:07;15.30;83.60
20568;DHT22;10442;49.932;11.592;2022-10-23T07:03:35;15.30;83.30
20568;DHT22;10442;49.932;11.592;2022-10-23T07:06:08;15.30;83.30
20568;DHT22;10442;49.932;11.592;2022-10-23T07:08:37;15.30;83.30
20568;DHT22;10442;49.932;11.592;2022-10-23T07:11:19;15.40;83.20
20568;DHT22;10442;49.932;11.592;2022-10-23T07:13:48;15.40;82.90
20568;DHT22;10442;49.932;11.592;2022-10-23T07:16:21;15.40;82.80
20568;DHT22;10442;49.932;11.592;2022-10-23T07:18:54;15.50;82.80
20568;DHT22;10442;49.932;11.592;2022-10-23T07:21:30;15.50;82.70
20568;DHT22;10442;49.932;11.592;2022-10-23T07:24:17;15.60;82.40
20568;DHT22;10442;49.932;11.592;2022-10-23T07:26:44;15.60;82.40
20568;DHT22;10442;49.932;11.592;2022-10-23T07:29:13;15.70;82.30
20568;DHT22;10442;49.932;11.592;2022-10-23T07:31:41;15.70;82.00
20568;DHT22;10442;49.932;11.592;2022-10-23T07:34:38;15.80;82.00
20568;DHT22;10442;49.932;11.592;2022-10-23T07:37:24;15.90;81.60
20568;DHT22;10442;49.932;11.592;2022-10-23T07:39:52;15.90;81.80
20568;DHT22;10442;49.932;11.592;2022-10-23T07:42:19;15.90;81.00
20568;DHT22;10442;49.932;11.592;2022-10-23T07:44:47;16.00;81.00
20568;DHT22;10442;49.932;11.592;2022-10-23T07:47:15;16.10;81.20
20568;DHT22;10442;49.932;11.592;2022-10-23T07:49:47;16.20;81.00
20568;DHT22;10442;49.932;11.592;2022-10-23T07:52:15;16.30;80.40
20568;DHT22;10442;49.932;11.592;2022-10-23T07:55:01;16.40;79.90
20568;DHT22;10442;49.932;11.592;2022-10-23T07:57:30;16.40;79.50
20568;DHT22;10442;49.932;11.592;2022-10-23T08:00:09;16.50;79.30
20568;DHT22;10442;49.932;11.592;2022-10-23T08:02:40;16.50;79.30
20568;DHT22;10442;49.932;11.592;2022-10-23T08:05:10;16.60;79.30
20568;DHT22;10442;49.932;11.592;2022-10-23T08:07:48;16.60;78.90
20568;DHT22;10442;49.932;11.592;2022-10-23T08:10:16;16.70;78.60
20568;DHT22;10442;49.932;11.592;2022-10-23T08:12:44;16.80;78.70
20568;DHT22;10442;49.932;11.592;2022-10-23T08:15:12;16.80;78.40
20568;DHT22;10442;49.932;11.592;2022-10-23T08:17:54;16.80;77.90
20568;DHT22;10442;49.932;11.592;2022-10-23T08:20:43;16.80;77.70
20568;DHT22;10442;49.932;11.592;2022-10-23T08:23:12;16.90;77.90
20568;DHT22;10442;49.932;11.592;2022-10-23T08:25:40;16.90;77.80
20568;DHT22;10442;49.932;11.592;2022-10-23T08:28:08;17.00;78.10
20568;DHT22;10442;49.932;11.592;2022-10-23T08:30:45;17.10;77.60
20568;DHT22;10442;49.932;11.592;2022-10-23T08:33:13;17.20;77.50
20568;DHT22;10442;49.932;11.592;2022-10-23T08:35:41;17.30;77.10
20568;DHT22;10442;49.932;11.592;2022-10-23T08:38:09;17.30;76.90
20568;DHT22;10442;49.932;11.592;2022-10-23T08:40:46;17.30;76.50
20568;DHT22;10442;49.932;11.592;2022-10-23T08:46:12;17.30;76.10
20568;DHT22;10442;49.932;11.592;2022-10-23T08:51:58;17.40;76.80
20568;DHT22;10442;49.932;11.592;2022-10-23T08:54:59;17.50;76.30
20568;DHT22;10442;49.932;11.592;2022-10-23T08:57:35;17.50;76.90
20568;DHT22;10442;49.932;11.592;2022-10-23T09:00:15;17.60;76.70
20568;DHT22;10442;49.932;11.592;2022-10-23T09:02:48;17.70;76.90
20568;DHT22;10442;49.932;11.592;2022-10-23T09:19:17;18.20;74.10
20568;DHT22;10442;49.932;11.592;2022-10-23T09:21:47;18.30;73.60
20568;DHT22;10442;49.932;11.592;2022-10-23T09:24:20;18.30;74.30
20568;DHT22;10442;49.932;11.592;2022-10-23T09:26:50;18.30;73.70
20568;DHT22;10442;49.932;11.592;2022-10-23T09:29:25;18.20;73.60
20568;DHT22;10442;49.932;11.592;2022-10-23T09:31:58;18.20;73.00
20568;DHT22;10442;49.932;11.592;2022-10-23T09:34:29;18.10;73.70
20568;DHT22;10442;49.932;11.592;2022-10-23T09:37:00;18.10;74.10
20568;DHT22;10442;49.932;11.592;2022-10-23T09:39:33;18.20;73.60
20568;DHT22;10442;49.932;11.592;2022-10-23T09:42:14;18.10;74.40
20568;DHT22;10442;49.932;11.592;2022-10-23T09:44:49;18.20;74.50
20568;DHT22;10442;49.932;11.592;2022-10-23T09:47:19;18.30;74.20
20568;DHT22;10442;49.932;11.592;2022-10-23T09:49:52;18.30;74.00
20568;DHT22;10442;49.932;11.592;2022-10-23T09:52:28;18.40;72.90
20568;DHT22;10442;49.932;11.592;2022-10-23T09:55:16;18.30;72.80
20568;DHT22;10442;49.932;11.592;2022-10-23T09:57:45;18.30;73.10
20568;DHT22;10442;49.932;11.592;2022-10-23T10:03:02;18.30;73.70
20568;DHT22;10442;49.932;11.592;2022-10-23T10:06:00;18.40;73.20
20568;DHT22;10442;49.932;11.592;2022-10-23T10:08:33;18.40;73.30
20568;DHT22;10442;49.932;11.592;2022-10-23T10:11:19;18.50;73.00
20568;DHT22;10442;49.932;11.592;2022-10-23T10:17:04;18.50;73.50
20568;DHT22;10442;49.932;11.592;2022-10-23T10:36:51;19.00;72.40
20568;DHT22;10442;49.932;11.592;2022-10-23T10:42:11;19.10;71.70
20568;DHT22;10442;49.932;11.592;2022-10-23T10:47:37;19.20;71.80
20568;DHT22;10442;49.932;11.592;2022-10-23T10:50:22;19.20;70.90
20568;DHT22;10442;49.932;11.592;2022-10-23T10:55:54;19.30;71.50
20568;DHT22;10442;49.932;11.592;2022-10-23T11:01:00;19.30;71.90
20568;DHT22;10442;49.932;11.592;2022-10-23T11:03:35;19.30;72.20
20568;DHT22;10442;49.932;11.592;2022-10-23T11:06:12;19.40;72.10
20568;DHT22;10442;49.932;11.592;2022-10-23T11:08:41;19.40;71.50
20568;DHT22;10442;49.932;11.592;2022-10-23T11:11:34;19.50;71.50
20568;DHT22;10442;49.932;11.592;2022-10-23T11:14:03;19.60;71.50
20568;DHT22;10442;49.932;11.592;2022-10-23T11:16:36;19.60;71.10
20568;DHT22;10442;49.932;11.592;2022-10-23T11:19:13;19.60;70.70
20568;DHT22;10442;49.932;11.592;2022-10-23T11:25:00;19.60;71.30
20568;DHT22;10442;49.932;11.592;2022-10-23T11:30:25;19.50;70.90
20568;DHT22;10442;49.932;11.592;2022-10-23T11:35:43;19.50;71.50
20568;DHT22;10442;49.932;11.592;2022-10-23T11:41:15;19.50;71.10
20568;DHT22;10442;49.932;11.592;2022-10-23T11:43:53;19.60;71.90
20568;DHT22;10442;49.932;11.592;2022-10-23T11:46:33;19.70;71.70
20568;DHT22;10442;49.932;11.592;2022-10-23T11:49:02;19.70;71.60
20568;DHT22;10442;49.932;11.592;2022-10-23T11:51:37;19.80;71.40
20568;DHT22;10442;49.932;11.592;2022-10-23T11:56:32;20.00;70.60
20568;DHT22;10442;49.932;11.592;2022-10-23T11:59:23;20.00;69.90
20568;DHT22;10442;49.932;11.592;2022-10-23T12:01:52;20.00;69.30
20568;DHT22;10442;49.932;11.592;2022-10-23T12:04:25;20.10;69.80
20568;DHT22;10442;49.932;11.592;2022-10-23T12:06:55;20.20;69.40
20568;DHT22;10442;49.932;11.592;2022-10-23T12:09:30;20.20;69.00
20568;DHT22;10442;49.932;11.592;2022-10-23T12:12:03;20.30;68.90
20568;DHT22;10442;49.932;11.592;2022-10-23T12:14:49;20.40;68.80
20568;DHT22;10442;49.932;11.592;2022-10-23T12:20:18;20.50;69.00
20568;DHT22;10442;49.932;11.592;2022-10-23T12:23:11;20.50;68.20
20568;DHT22;10442;49.932;11.592;2022-10-23T12:29:05;20.60;67.90
20568;DHT22;10442;49.932;11.592;2022-10-23T12:31:49;20.70;67.70
20568;DHT22;10442;49.932;11.592;2022-10-23T12:34:34;20.80;67.40
20568;DHT22;10442;49.932;11.592;2022-10-23T12:37:07;20.80;66.90
20568;DHT22;10442;49.932;11.592;2022-10-23T12:39:38;20.90;66.20
20568;DHT22;10442;49.932;11.592;2022-10-23T12:42:15;20.80;65.80
20568;DHT22;10442;49.932;11.592;2022-10-23T12:44:45;20.90;65.20
20568;DHT22;10442;49.932;11.592;2022-10-23T12:47:16;20.80;65.10
20568;DHT22;10442;49.932;11.592;2022-10-23T12:49:49;20.90;65.50
20568;DHT22;10442;49.932;11.592;2022-10-23T12:52:19;20.80;65.30
20568;DHT22;10442;49.932;11.592;2022-10-23T12:54:47;20.90;65.20
20568;DHT22;10442;49.932;11.592;2022-10-23T12:57:28;20.90;65.10
20568;DHT22;10442;49.932;11.592;2022-10-23T13:00:03;20.90;65.00
20568;DHT22;10442;49.932;11.592;2022-10-23T13:02:36;20.90;64.90
20568;DHT22;10442;49.932;11.592;2022-10-23T13:05:10;20.90;64.20
20568;DHT22;10442;49.932;11.592;2022-10-23T13:07:44;21.00;64.10
20568;DHT22;10442;49.932;11.592;2022-10-23T13:10:17;21.00;63.40
20568;DHT22;10442;49.932;11.592;2022-10-23T13:12:57;21.10;63.30
20568;DHT22;10442;49.932;11.592;2022-10-23T13:15:39;21.10;63.60
20568;DHT22;10442;49.932;11.592;2022-10-23T13:18:09;21.20;63.20
20568;DHT22;10442;49.932;11.592;2022-10-23T13:20:54;21.20;62.90
20568;DHT22;10442;49.932;11.592;2022-10-23T13:23:31;21.20;62.40
20568;DHT22;10442;49.932;11.592;2022-10-23T13:26:02;21.20;63.10
20568;DHT22;10442;49.932;11.592;2022-10-23T13:28:43;21.20;62.40
20568;DHT22;10442;49.932;11.592;2022-10-23T13:33:42;21.20;63.20
20568;DHT22;10442;49.932;11.592;2022-10-23T13:38:57;21.20;62.90
20568;DHT22;10442;49.932;11.592;2022-10-23T13:41:44;21.20;62.90
20568;DHT22;10442;49.932;11.592;2022-10-23T13:44:13;21.20;62.60
20568;DHT22;10442;49.932;11.592;2022-10-23T13:46:42;21.20;62.50
20568;DHT22;10442;49.932;11.592;2022-10-23T13:49:09;21.20;61.40
20568;DHT22;10442;49.932;11.592;2022-10-23T13:51:41;21.20;62.40
20568;DHT22;10442;49.932;11.592;2022-10-23T13:54:16;21.20;62.40
20568;DHT22;10442;49.932;11.592;2022-10-23T13:56:44;21.20;62.30
20568;DHT22;10442;49.932;11.592;2022-10-23T13:59:13;21.20;61.90
20568;DHT22;10442;49.932;11.592;2022-10-23T14:01:41;21.20;61.50
20568;DHT22;10442;49.932;11.592;2022-10-23T14:04:10;21.20;61.60
20568;DHT22;10442;49.932;11.592;2022-10-23T14:06:38;21.10;61.60
20568;DHT22;10442;49.932;11.592;2022-10-23T14:09:07;21.10;61.80
20568;DHT22;10442;49.932;11.592;2022-10-23T14:11:35;21.10;61.90
20568;DHT22;10442;49.932;11.592;2022-10-23T14:14:02;21.00;61.60
20568;DHT22;10442;49.932;11.592;2022-10-23T14:16:30;21.00;62.00
20568;DHT22;10442;49.932;11.592;2022-10-23T14:18:57;21.00;61.60
20568;DHT22;10442;49.932;11.592;2022-10-23T14:21:25;20.90;61.50
20568;DHT22;10442;49.932;11.592;2022-10-23T14:23:52;20.90;61.50
20568;DHT22;10442;49.932;11.592;2022-10-23T14:26:25;20.80;61.80
20568;DHT22;10442;49.932;11.592;2022-10-23T14:28:55;20.80;61.40
20568;DHT22;10442;49.932;11.592;2022-10-23T14:31:25;20.80;61.80
20568;DHT22;10442;49.932;11.592;2022-10-23T14:33:55;20.80;61.80
20568;DHT22;10442;49.932;11.592;2022-10-23T14:36:23;20.80;62.10
20568;DHT22;10442;49.932;11.592;2022-10-23T14:39:00;20.80;62.30
20568;DHT22;10442;49.932;11.592;2022-10-23T14:41:28;20.80;62.10
20568;DHT22;10442;49.932;11.592;2022-10-23T14:43:56;20.80;62.00
20568;DHT22;10442;49.932;11.592;2022-10-23T14:46:23;20.80;62.20
20568;DHT22;10442;49.932;11.592;2022-10-23T14:48:52;20.80;61.90
20568;DHT22;10442;49.932;11.592;2022-10-23T14:51:27;20.80;61.50
20568;DHT22;10442;49.932;11.592;2022-10-23T14:53:57;20.80;61.40
20568;DHT22;10442;49.932;11.592;2022-10-23T14:56:30;20.80;60.80
20568;DHT22;10442;49.932;11.592;2022-10-23T14:58:59;20.80;61.20
20568;DHT22;10442;49.932;11.592;2022-10-23T15:01:35;20.80;61.10
20568;DHT22;10442;49.932;11.592;2022-10-23T15:04:06;20.70;60.40
20568;DHT22;10442;49.932;11.592;2022-10-23T15:06:34;20.60;60.70
20568;DHT22;10442;49.932;11.592;2022-10-23T15:09:02;20.50;60.90
20568;DHT22;10442;49.932;11.592;2022-10-23T15:11:30;20.50;61.20
20568;DHT22;10442;49.932;11.592;2022-10-23T15:13:58;20.40;61.40
20568;DHT22;10442;49.932;11.592;2022-10-23T15:16:27;20.40;61.50
20568;DHT22;10442;49.932;11.592;2022-10-23T15:18:54;20.30;61.80
20568;DHT22;10442;49.932;11.592;2022-10-23T15:21:21;20.20;62.10
20568;DHT22;10442;49.932;11.592;2022-10-23T15:23:49;20.20;62.30
20568;DHT22;10442;49.932;11.592;2022-10-23T15:26:18;20.20;62.40
20568;DHT22;10442;49.932;11.592;2022-10-23T15:29:00;20.10;62.50
20568;DHT22;10442;49.932;11.592;2022-10-23T15:33:56;20.00;62.70
20568;DHT22;10442;49.932;11.592;2022-10-23T15:36:24;20.00;62.80
20568;DHT22;10442;49.932;11.592;2022-10-23T15:38:52;20.00;63.00
20568;DHT22;10442;49.932;11.592;2022-10-23T15:41:27;20.00;63.00
20568;DHT22;10442;49.932;11.592;2022-10-23T15:43:55;19.90;63.40
20568;DHT22;10442;49.932;11.592;2022-10-23T15:46:22;19.90;63.50
20568;DHT22;10442;49.932;11.592;2022-10-23T15:48:50;19.80;63.50
20568;DHT22;10442;49.932;11.592;2022-10-23T15:51:17;19.80;63.80
20568;DHT22;10442;49.932;11.592;2022-10-23T15:53:44;19.70;64.10
20568;DHT22;10442;49.932;11.592;2022-10-23T15:56:12;19.70;64.30
20568;DHT22;10442;49.932;11.592;2022-10-23T15:58:40;19.60;64.30
20568;DHT22;10442;49.932;11.592;2022-10-23T16:01:07;19.60;64.60
20568;DHT22;10442;49.932;11.592;2022-10-23T16:03:36;19.50;64.70
20568;DHT22;10442;49.932;11.592;2022-10-23T16:06:09;19.40;64.90
20568;DHT22;10442;49.932;11.592;2022-10-23T16:08:37;19.40;65.30
20568;DHT22;10442;49.932;11.592;2022-10-23T16:11:34;19.30;65.40
20568;DHT22;10442;49.932;11.592;2022-10-23T16:14:00;19.30;65.60
20568;DHT22;10442;49.932;11.592;2022-10-23T16:16:30;19.20;65.70
20568;DHT22;10442;49.932;11.592;2022-10-23T16:18:59;19.20;65.90
20568;DHT22;10442;49.932;11.592;2022-10-23T16:21:29;19.20;66.30
20568;DHT22;10442;49.932;11.592;2022-10-23T16:23:59;19.10;66.40
20568;DHT22;10442;49.932;11.592;2022-10-23T16:26:27;19.00;66.50
20568;DHT22;10442;49.932;11.592;2022-10-23T16:28:57;19.00;66.80
20568;DHT22;10442;49.932;11.592;2022-10-23T16:31:26;19.00;66.90
20568;DHT22;10442;49.932;11.592;2022-10-23T16:33:57;18.90;66.90
20568;DHT22;10442;49.932;11.592;2022-10-23T16:36:29;18.90;67.10
20568;DHT22;10442;49.932;11.592;2022-10-23T16:39:18;18.90;67.20
20568;DHT22;10442;49.932;11.592;2022-10-23T16:42:04;18.80;67.40
20568;DHT22;10442;49.932;11.592;2022-10-23T16:44:55;18.80;67.70
20568;DHT22;10442;49.932;11.592;2022-10-23T16:47:23;18.80;67.80
20568;DHT22;10442;49.932;11.592;2022-10-23T16:49:51;18.70;67.80
20568;DHT22;10442;49.932;11.592;2022-10-23T16:52:18;18.80;68.10
20568;DHT22;10442;49.932;11.592;2022-10-23T16:54:46;18.70;68.30
20568;DHT22;10442;49.932;11.592;2022-10-23T16:57:13;18.70;68.50
20568;DHT22;10442;49.932;11.592;2022-10-23T16:59:41;18.60;68.50
20568;DHT22;10442;49.932;11.592;2022-10-23T17:02:10;18.60;68.60
20568;DHT22;10442;49.932;11.592;2022-10-23T17:04:38;18.60;68.80
20568;DHT22;10442;49.932;11.592;2022-10-23T17:07:05;18.60;69.00
20568;DHT22;10442;49.932;11.592;2022-10-23T17:09:33;18.60;69.00
20568;DHT22;10442;49.932;11.592;2022-10-23T17:12:01;18.60;69.10
20568;DHT22;10442;49.932;11.592;2022-10-23T17:14:29;18.60;69.80
20568;DHT22;10442;49.932;11.592;2022-10-23T17:16:59;18.60;69.00
20568;DHT22;10442;49.932;11.592;2022-10-23T17:19:32;18.60;69.10
20568;DHT22;10442;49.932;11.592;2022-10-23T17:22:12;18.60;69.00
20568;DHT22;10442;49.932;11.592;2022-10-23T17:24:41;18.60;69.10
20568;DHT22;10442;49.932;11.592;2022-10-23T17:27:12;18.60;69.00